Time;durP1;ratioP1;P1;durP2;ratioP2;P2;SDS_P1;SDS_P2;PMS_P1;PMS_P2;Temp;Humidity;BMP_temperature;BMP_pressure;BME280_temperature;BME280_humidity;BME280_pressure;Samples;Min_cycle;Max_cycle;Signal;HPM_P1;HPM_P2
2022/10/26 00:00:39;;;;;;;;;;;10.00;99.90;;;;;;5043036;28;20331;-93
2022/10/26 00:03:05;;;;;;;;;;;10.00;99.90;;;;;;5055071;28;19960;-92
2022/10/26 00:05:34;;;;;;;;;;;10.00;99.90;;;;;;5044519;28;20351;-92
2022/10/26 00:08:00;;;;;;;;;;;10.00;99.90;;;;;;5045390;28;20272;-93
2022/10/26 00:10:26;;;;;;;;;;;10.00;99.90;;;;;;5027711;28;19940;-92
2022/10/26 00:12:51;;;;;;;;;;;10.00;99.90;;;;;;5012398;28;19925;-94
2022/10/26 00:15:18;;;;;;;;;;;10.00;99.90;;;;;;5046042;28;20019;-92
2022/10/26 00:17:43;;;;;;;;;;;10.00;99.90;;;;;;5040488;28;20023;-92
2022/10/26 00:20:09;;;;;;;;;;;10.00;99.90;;;;;;5039126;28;19925;-93
2022/10/26 00:22:36;;;;;;;;;;;10.00;99.90;;;;;;5079550;28;20494;-92
2022/10/26 00:25:01;;;;;;;;;;;10.00;99.90;;;;;;5048978;28;19925;-93
2022/10/26 00:27:27;;;;;;;;;;;10.00;99.90;;;;;;5035530;28;20297;-92
2022/10/26 00:29:52;;;;;;;;;;;10.00;99.90;;;;;;5031694;28;19936;-92
2022/10/26 00:32:18;;;;;;;;;;;10.00;99.90;;;;;;5044924;28;19936;-93
2022/10/26 00:34:44;;;;;;;;;;;10.00;99.90;;;;;;5015724;28;19925;-92
2022/10/26 00:37:09;;;;;;;;;;;10.00;99.90;;;;;;5028515;28;19964;-93
2022/10/26 00:39:35;;;;;;;;;;;10.00;99.90;;;;;;5029382;28;19928;-92
2022/10/26 00:42:01;;;;;;;;;;;10.00;99.90;;;;;;5031156;28;19933;-93
2022/10/26 00:44:45;;;;;;;;;;;10.00;99.90;;;;;;5045765;28;20004;-92
2022/10/26 00:47:15;;;;;;;;;;;10.00;99.90;;;;;;5039709;28;19929;-92
2022/10/26 00:49:41;;;;;;;;;;;9.90;99.90;;;;;;5026564;28;19925;-92
2022/10/26 00:52:07;;;;;;;;;;;10.00;99.90;;;;;;5037185;28;20486;-93
2022/10/26 00:54:33;;;;;;;;;;;10.50;99.90;;;;;;5025183;28;19929;-93
2022/10/26 00:56:59;;;;;;;;;;;9.90;99.90;;;;;;5024505;28;19943;-93
2022/10/26 00:59:24;;;;;;;;;;;10.00;99.90;;;;;;5023133;28;19930;-93
2022/10/26 01:01:50;;;;;;;;;;;9.90;99.90;;;;;;5002884;28;20252;-93
2022/10/26 01:04:17;;;;;;;;;;;10.00;99.90;;;;;;5037019;28;19925;-93
2022/10/26 01:06:43;;;;;;;;;;;9.90;99.90;;;;;;5003397;28;19971;-93
2022/10/26 01:09:10;;;;;;;;;;;9.90;99.90;;;;;;5003132;28;19926;-93
2022/10/26 01:11:35;;;;;;;;;;;10.80;99.90;;;;;;5016489;28;19936;-92
2022/10/26 01:14:02;;;;;;;;;;;9.90;99.90;;;;;;5045141;28;20290;-94
2022/10/26 01:16:31;;;;;;;;;;;9.90;99.90;;;;;;5022594;28;19925;-93
2022/10/26 01:19:09;;;;;;;;;;;9.80;99.90;;;;;;5044980;28;19925;-93
2022/10/26 01:21:41;;;;;;;;;;;9.80;99.90;;;;;;5041990;28;19929;-92
2022/10/26 01:24:12;;;;;;;;;;;9.80;99.90;;;;;;5038337;28;19932;-93
2022/10/26 01:26:50;;;;;;;;;;;9.80;99.90;;;;;;5059993;28;19947;-92
2022/10/26 01:29:36;;;;;;;;;;;9.80;99.90;;;;;;5036946;28;20016;-93
2022/10/26 01:32:02;;;;;;;;;;;9.70;99.90;;;;;;5037909;28;19932;-92
2022/10/26 01:34:37;;;;;;;;;;;9.70;99.90;;;;;;5024638;28;19925;-93
2022/10/26 01:37:07;;;;;;;;;;;9.60;99.90;;;;;;5054153;28;20387;-92
2022/10/26 01:39:33;;;;;;;;;;;9.60;99.90;;;;;;5019028;28;19984;-92
2022/10/26 01:42:00;;;;;;;;;;;9.60;99.90;;;;;;5031359;28;19925;-92
2022/10/26 01:44:41;;;;;;;;;;;9.60;99.90;;;;;;5041516;28;19925;-93
2022/10/26 01:47:12;;;;;;;;;;;7.20;99.90;;;;;;5027816;28;19932;-94
2022/10/26 01:49:40;;;;;;;;;;;9.50;99.90;;;;;;5019461;28;19925;-92
2022/10/26 01:52:08;;;;;;;;;;;9.50;99.90;;;;;;5012190;28;19988;-93
2022/10/26 01:54:37;;;;;;;;;;;9.40;99.90;;;;;;5021148;28;19957;-93
2022/10/26 01:57:08;;;;;;;;;;;9.40;99.90;;;;;;5037372;28;19925;-92
2022/10/26 01:59:56;;;;;;;;;;;9.40;99.90;;;;;;5016606;28;19925;-92
2022/10/26 02:02:41;;;;;;;;;;;9.40;99.90;;;;;;5029762;28;19925;-92
2022/10/26 02:05:24;;;;;;;;;;;9.40;99.90;;;;;;5062004;28;20449;-92
2022/10/26 02:07:56;;;;;;;;;;;9.40;99.90;;;;;;5065417;28;19929;-92
2022/10/26 02:10:37;;;;;;;;;;;9.30;99.90;;;;;;5022068;28;19980;-92
2022/10/26 02:13:23;;;;;;;;;;;9.30;99.90;;;;;;5037477;28;19925;-93
2022/10/26 02:15:56;;;;;;;;;;;9.30;99.90;;;;;;5040797;28;19997;-93
2022/10/26 02:18:28;;;;;;;;;;;9.30;99.90;;;;;;5073860;28;19979;-92
2022/10/26 02:20:56;;;;;;;;;;;8.00;99.90;;;;;;5057300;28;19925;-93
2022/10/26 02:23:23;;;;;;;;;;;9.30;99.90;;;;;;5039964;28;19925;-93
2022/10/26 02:25:53;;;;;;;;;;;9.30;99.90;;;;;;5024250;28;20056;-92
2022/10/26 02:28:20;;;;;;;;;;;9.20;99.90;;;;;;5040131;28;19936;-94
2022/10/26 02:30:48;;;;;;;;;;;9.20;99.90;;;;;;5036859;28;20259;-92
2022/10/26 02:33:14;;;;;;;;;;;9.20;99.90;;;;;;5057288;28;19925;-93
2022/10/26 02:35:40;;;;;;;;;;;9.20;99.90;;;;;;5036338;28;19960;-93
2022/10/26 02:38:08;;;;;;;;;;;9.10;99.90;;;;;;5019415;28;20012;-93
2022/10/26 02:40:35;;;;;;;;;;;9.10;99.90;;;;;;5040753;28;19926;-92
2022/10/26 02:43:03;;;;;;;;;;;9.10;99.90;;;;;;5017913;28;20275;-93
2022/10/26 02:45:34;;;;;;;;;;;9.10;99.90;;;;;;5024590;28;19937;-93
2022/10/26 02:47:59;;;;;;;;;;;9.10;99.90;;;;;;5021421;28;19933;-94
2022/10/26 02:50:29;;;;;;;;;;;9.10;99.90;;;;;;5025048;28;19936;-92
2022/10/26 02:52:57;;;;;;;;;;;9.00;99.90;;;;;;5028254;28;20043;-92
2022/10/26 02:55:26;;;;;;;;;;;9.00;99.90;;;;;;5033139;28;19925;-93
2022/10/26 02:57:55;;;;;;;;;;;9.00;99.90;;;;;;5049332;28;19997;-92
2022/10/26 03:00:20;;;;;;;;;;;9.10;99.90;;;;;;5064761;28;19926;-94
2022/10/26 03:02:51;;;;;;;;;;;9.00;99.90;;;;;;5029239;28;19935;-93
2022/10/26 03:05:19;;;;;;;;;;;9.00;99.90;;;;;;5047024;28;19961;-92
2022/10/26 03:07:44;;;;;;;;;;;8.90;99.90;;;;;;5044283;28;19943;-93
2022/10/26 03:10:10;;;;;;;;;;;8.90;99.90;;;;;;5029462;28;19988;-92
2022/10/26 03:12:36;;;;;;;;;;;9.00;99.90;;;;;;5045208;28;19947;-92
2022/10/26 03:15:02;;;;;;;;;;;8.90;99.90;;;;;;5029407;28;19925;-93
2022/10/26 03:17:28;;;;;;;;;;;8.90;99.90;;;;;;5046778;28;20341;-93
2022/10/26 03:19:54;;;;;;;;;;;8.90;99.90;;;;;;5014113;28;19985;-94
2022/10/26 03:22:20;;;;;;;;;;;8.80;99.90;;;;;;5060059;28;19925;-91
2022/10/26 03:24:46;;;;;;;;;;;8.80;99.90;;;;;;5047031;28;20256;-92
2022/10/26 03:27:11;;;;;;;;;;;8.80;99.90;;;;;;5029865;28;19932;-92
2022/10/26 03:29:37;;;;;;;;;;;8.80;99.90;;;;;;5047173;28;19964;-93
2022/10/26 03:32:03;;;;;;;;;;;8.80;99.90;;;;;;5012035;28;19947;-94
2022/10/26 03:34:28;;;;;;;;;;;8.70;99.90;;;;;;5025313;28;19933;-92
2022/10/26 03:36:54;;;;;;;;;;;8.70;99.90;;;;;;5040166;28;20105;-93
2022/10/26 03:39:19;;;;;;;;;;;8.70;99.90;;;;;;5043173;28;19952;-93
2022/10/26 03:41:46;;;;;;;;;;;8.10;99.90;;;;;;5026192;28;19940;-92
2022/10/26 03:44:12;;;;;;;;;;;9.10;99.90;;;;;;5029145;28;19925;-91
2022/10/26 03:46:38;;;;;;;;;;;8.70;99.90;;;;;;5035618;28;20051;-93
2022/10/26 03:49:04;;;;;;;;;;;8.70;99.90;;;;;;5039946;28;19925;-93
2022/10/26 03:51:29;;;;;;;;;;;8.70;99.90;;;;;;5012716;28;19925;-92
2022/10/26 03:53:55;;;;;;;;;;;8.70;99.90;;;;;;5077564;28;19952;-93
2022/10/26 03:56:20;;;;;;;;;;;8.70;99.90;;;;;;5012105;28;19925;-92
2022/10/26 03:58:46;;;;;;;;;;;8.70;99.90;;;;;;5059786;28;20387;-93
2022/10/26 04:01:12;;;;;;;;;;;8.70;99.90;;;;;;5020306;28;19965;-93
2022/10/26 04:03:37;;;;;;;;;;;8.70;99.90;;;;;;5023348;28;20035;-92
2022/10/26 04:06:03;;;;;;;;;;;8.70;99.90;;;;;;5025587;28;19932;-93
2022/10/26 04:08:29;;;;;;;;;;;8.70;99.90;;;;;;5015829;28;20037;-93
2022/10/26 04:10:54;;;;;;;;;;;8.70;99.90;;;;;;5012178;28;19929;-93
2022/10/26 04:13:20;;;;;;;;;;;8.70;99.90;;;;;;5007851;28;20227;-92
2022/10/26 04:15:45;;;;;;;;;;;8.70;99.90;;;;;;5026699;28;20341;-93
2022/10/26 04:18:14;;;;;;;;;;;8.70;99.90;;;;;;5043085;28;20420;-92
2022/10/26 04:20:43;;;;;;;;;;;8.60;99.90;;;;;;5041940;28;19948;-93
2022/10/26 04:23:10;;;;;;;;;;;8.60;99.90;;;;;;5058876;28;20522;-93
2022/10/26 04:25:36;;;;;;;;;;;8.60;99.90;;;;;;5040907;28;20386;-93
2022/10/26 04:28:03;;;;;;;;;;;8.60;99.90;;;;;;5041772;28;19932;-93
2022/10/26 04:30:29;;;;;;;;;;;8.40;99.90;;;;;;5023015;28;20309;-92
2022/10/26 04:32:55;;;;;;;;;;;8.60;99.90;;;;;;5025386;28;19989;-92
2022/10/26 04:35:20;;;;;;;;;;;8.60;99.90;;;;;;5026002;28;20315;-91
2022/10/26 04:37:46;;;;;;;;;;;8.60;99.90;;;;;;5045230;28;19948;-94
2022/10/26 04:40:11;;;;;;;;;;;8.60;99.90;;;;;;5043620;28;19926;-94
2022/10/26 04:42:43;;;;;;;;;;;8.60;99.90;;;;;;5025229;28;19925;-92
2022/10/26 04:45:09;;;;;;;;;;;8.60;99.90;;;;;;5041853;28;19925;-93
2022/10/26 04:47:35;;;;;;;;;;;8.60;99.90;;;;;;5026203;28;19967;-92
2022/10/26 04:50:01;;;;;;;;;;;8.70;99.90;;;;;;5004901;28;19951;-92
2022/10/26 04:52:26;;;;;;;;;;;8.70;99.90;;;;;;5008411;28;19972;-90
2022/10/26 04:54:52;;;;;;;;;;;8.70;99.90;;;;;;5025364;28;19925;-93
2022/10/26 04:57:17;;;;;;;;;;;8.70;99.90;;;;;;5042046;28;19944;-93
2022/10/26 04:59:43;;;;;;;;;;;8.70;99.90;;;;;;5020524;28;19944;-94
2022/10/26 05:02:08;;;;;;;;;;;8.80;99.90;;;;;;5023795;28;19932;-92
2022/10/26 05:04:34;;;;;;;;;;;8.80;99.90;;;;;;5058973;28;19929;-92
2022/10/26 05:07:00;;;;;;;;;;;8.80;99.90;;;;;;5055325;28;19936;-92
2022/10/26 05:09:25;;;;;;;;;;;8.80;99.90;;;;;;5017248;28;19936;-93
2022/10/26 05:11:51;;;;;;;;;;;8.90;99.90;;;;;;5038211;28;19935;-92
2022/10/26 05:14:16;;;;;;;;;;;8.90;99.90;;;;;;5024372;28;19940;-92
2022/10/26 05:16:43;;;;;;;;;;;8.90;99.90;;;;;;5040213;28;19932;-92
2022/10/26 05:19:09;;;;;;;;;;;8.90;99.90;;;;;;5074439;28;19936;-93
2022/10/26 05:21:34;;;;;;;;;;;8.90;99.90;;;;;;5041774;28;19928;-93
2022/10/26 05:24:00;;;;;;;;;;;8.90;99.90;;;;;;5008047;28;19925;-93
2022/10/26 05:26:26;;;;;;;;;;;8.90;99.90;;;;;;5024262;28;20444;-92
2022/10/26 05:28:52;;;;;;;;;;;9.00;99.90;;;;;;5024320;28;19972;-92
2022/10/26 05:31:18;;;;;;;;;;;9.00;99.90;;;;;;5022209;28;20302;-95
2022/10/26 05:33:43;;;;;;;;;;;9.00;99.90;;;;;;5025042;28;20286;-95
2022/10/26 05:36:09;;;;;;;;;;;9.00;99.90;;;;;;4997126;28;19929;-95
2022/10/26 05:38:35;;;;;;;;;;;9.00;99.90;;;;;;5038911;28;19929;-95
2022/10/26 05:41:00;;;;;;;;;;;9.00;99.90;;;;;;4996382;28;19925;-94
2022/10/26 05:43:26;;;;;;;;;;;9.00;99.90;;;;;;5019382;28;19940;-95
2022/10/26 05:45:52;;;;;;;;;;;9.10;99.90;;;;;;5044592;28;19932;-95
2022/10/26 05:48:18;;;;;;;;;;;9.10;99.90;;;;;;5005524;28;19980;-96
2022/10/26 05:50:44;;;;;;;;;;;9.10;99.90;;;;;;5024078;28;19932;-93
2022/10/26 05:53:10;;;;;;;;;;;9.10;99.90;;;;;;5011541;28;19993;-93
2022/10/26 05:55:35;;;;;;;;;;;9.20;99.90;;;;;;5014049;28;19925;-94
2022/10/26 05:58:01;;;;;;;;;;;9.20;99.90;;;;;;5019190;28;19933;-93
2022/10/26 06:00:28;;;;;;;;;;;9.20;99.90;;;;;;5031813;28;19932;-94
2022/10/26 06:02:59;;;;;;;;;;;9.30;99.90;;;;;;5034787;28;19936;-93
2022/10/26 06:05:26;;;;;;;;;;;9.30;99.90;;;;;;5017328;28;20434;-95
2022/10/26 06:07:52;;;;;;;;;;;9.30;99.90;;;;;;5009377;28;19925;-96
2022/10/26 06:10:18;;;;;;;;;;;9.40;99.90;;;;;;5018944;28;20295;-95
2022/10/26 06:12:44;;;;;;;;;;;9.40;99.90;;;;;;5039641;28;19925;-95
2022/10/26 06:15:20;;;;;;;;;;;9.40;99.90;;;;;;5059452;28;19936;-96
2022/10/26 06:18:04;;;;;;;;;;;9.40;99.90;;;;;;5031776;28;19925;-95
2022/10/26 06:20:36;;;;;;;;;;;9.40;99.90;;;;;;5022858;28;19925;-94
2022/10/26 06:23:08;;;;;;;;;;;9.50;99.90;;;;;;5034766;28;19981;-95
2022/10/26 06:25:52;;;;;;;;;;;9.40;99.90;;;;;;5026465;28;19957;-95
2022/10/26 06:28:23;;;;;;;;;;;9.50;99.90;;;;;;5019263;28;19924;-93
2022/10/26 06:30:49;;;;;;;;;;;9.50;99.90;;;;;;5029500;28;19926;-94
2022/10/26 06:33:15;;;;;;;;;;;9.50;99.90;;;;;;5009810;28;19991;-95
2022/10/26 06:35:41;;;;;;;;;;;9.50;99.90;;;;;;5006693;28;19925;-96
2022/10/26 06:38:10;;;;;;;;;;;9.60;99.90;;;;;;5045319;28;20338;-96
2022/10/26 06:40:37;;;;;;;;;;;9.60;99.90;;;;;;5072124;28;19925;-96
2022/10/26 06:43:02;;;;;;;;;;;9.60;99.90;;;;;;5040336;28;19929;-96
2022/10/26 06:45:29;;;;;;;;;;;9.60;99.90;;;;;;5049884;28;19925;-96
2022/10/26 06:48:07;;;;;;;;;;;9.60;99.90;;;;;;5033253;28;19929;-96
2022/10/26 06:50:36;;;;;;;;;;;9.60;99.90;;;;;;5053729;28;20390;-96
2022/10/26 06:53:15;;;;;;;;;;;9.60;99.90;;;;;;5030869;28;19932;-96
2022/10/26 06:55:42;;;;;;;;;;;7.20;99.90;;;;;;5032473;28;19934;-96
2022/10/26 06:58:10;;;;;;;;;;;9.60;99.90;;;;;;5046961;28;19929;-96
2022/10/26 07:00:37;;;;;;;;;;;9.60;99.90;;;;;;5044131;28;19980;-96
2022/10/26 07:03:03;;;;;;;;;;;9.70;99.90;;;;;;5034380;28;19939;-96
2022/10/26 07:05:28;;;;;;;;;;;9.70;99.90;;;;;;5027777;28;19980;-96
2022/10/26 07:07:54;;;;;;;;;;;9.70;99.90;;;;;;4996408;23;19930;-94
2022/10/26 07:10:20;;;;;;;;;;;9.70;99.90;;;;;;4982698;28;19925;-94
2022/10/26 07:12:45;;;;;;;;;;;9.90;99.90;;;;;;4983102;28;19991;-94
2022/10/26 07:15:11;;;;;;;;;;;9.80;99.90;;;;;;5002869;28;19925;-94
2022/10/26 07:17:44;;;;;;;;;;;7.40;99.90;;;;;;5000683;28;19984;-95
2022/10/26 07:20:11;;;;;;;;;;;9.80;99.90;;;;;;5003409;28;19929;-95
2022/10/26 07:22:36;;;;;;;;;;;9.80;99.90;;;;;;4984260;28;19985;-95
2022/10/26 07:25:02;;;;;;;;;;;9.90;99.90;;;;;;5001911;28;19957;-93
2022/10/26 07:27:28;;;;;;;;;;;10.10;99.90;;;;;;4988599;28;19969;-93
2022/10/26 07:29:53;;;;;;;;;;;9.90;99.90;;;;;;4977280;28;19926;-94
2022/10/26 07:32:19;;;;;;;;;;;10.00;99.90;;;;;;4979254;28;19926;-94
2022/10/26 07:34:44;;;;;;;;;;;10.00;99.90;;;;;;4989968;28;19930;-95
2022/10/26 07:37:10;;;;;;;;;;;10.10;99.90;;;;;;4968992;28;19981;-94
2022/10/26 07:39:36;;;;;;;;;;;10.10;99.90;;;;;;4999649;28;19953;-93
2022/10/26 07:42:01;;;;;;;;;;;10.20;99.90;;;;;;4987899;28;20020;-95
2022/10/26 07:44:27;;;;;;;;;;;10.30;99.90;;;;;;4973093;28;19945;-95
2022/10/26 07:46:52;;;;;;;;;;;10.30;99.90;;;;;;4982896;28;19932;-96
2022/10/26 07:49:18;;;;;;;;;;;10.30;99.90;;;;;;4994448;28;19937;-94
2022/10/26 07:51:44;;;;;;;;;;;10.40;99.90;;;;;;4992513;28;19930;-94
2022/10/26 07:54:09;;;;;;;;;;;10.50;99.90;;;;;;4979462;28;19964;-94
2022/10/26 07:56:35;;;;;;;;;;;10.50;99.90;;;;;;4992966;28;19930;-94
2022/10/26 07:59:01;;;;;;;;;;;10.50;99.90;;;;;;4994602;28;19949;-96
2022/10/26 08:01:26;;;;;;;;;;;10.60;99.90;;;;;;4981283;28;19930;-95
2022/10/26 08:03:52;;;;;;;;;;;10.70;99.90;;;;;;4974233;28;19929;-94
2022/10/26 08:06:18;;;;;;;;;;;10.80;99.90;;;;;;4988802;28;19973;-95
2022/10/26 08:08:45;;;;;;;;;;;10.80;99.90;;;;;;4988627;28;19925;-94
2022/10/26 08:11:11;;;;;;;;;;;10.90;99.90;;;;;;4973652;28;19969;-96
2022/10/26 08:13:37;;;;;;;;;;;11.00;99.90;;;;;;4982677;28;20339;-95
2022/10/26 08:16:04;;;;;;;;;;;11.10;99.90;;;;;;4989340;28;19965;-95
2022/10/26 08:18:30;;;;;;;;;;;11.10;99.90;;;;;;4981817;28;19949;-93
2022/10/26 08:21:00;;;;;;;;;;;11.10;99.90;;;;;;4980914;28;19934;-95
2022/10/26 08:23:25;;;;;;;;;;;11.30;99.90;;;;;;4996267;28;19937;-94
2022/10/26 08:25:51;;;;;;;;;;;11.40;99.90;;;;;;4973687;28;19921;-95
2022/10/26 08:28:17;;;;;;;;;;;11.50;99.90;;;;;;4974827;28;19929;-96
2022/10/26 08:30:42;;;;;;;;;;;11.60;99.90;;;;;;4971405;28;19974;-96
2022/10/26 08:33:08;;;;;;;;;;;11.60;99.90;;;;;;4985793;28;20013;-93
2022/10/26 08:35:34;;;;;;;;;;;11.70;99.90;;;;;;4993634;28;19926;-94
2022/10/26 08:38:00;;;;;;;;;;;11.80;99.90;;;;;;5002570;28;20303;-94
2022/10/26 08:40:32;;;;;;;;;;;11.90;99.90;;;;;;4990612;28;20268;-96
2022/10/26 08:43:10;;;;;;;;;;;12.00;99.90;;;;;;4982915;28;19936;-93
2022/10/26 08:45:38;;;;;;;;;;;12.00;99.90;;;;;;4989438;28;19980;-94
2022/10/26 08:48:06;;;;;;;;;;;12.10;99.90;;;;;;4985386;28;19926;-93
2022/10/26 08:50:33;;;;;;;;;;;12.10;99.90;;;;;;5007374;28;19926;-93
2022/10/26 08:53:03;;;;;;;;;;;12.10;99.90;;;;;;4998493;28;19926;-94
2022/10/26 08:55:37;;;;;;;;;;;12.20;99.90;;;;;;4974871;28;19926;-94
2022/10/26 08:58:05;;;;;;;;;;;12.30;99.90;;;;;;4990583;28;19973;-93
2022/10/26 09:00:30;;;;;;;;;;;12.30;99.90;;;;;;4985012;28;19956;-95
2022/10/26 09:02:56;;;;;;;;;;;12.40;99.90;;;;;;4988265;28;19958;-93
2022/10/26 09:05:26;;;;;;;;;;;12.40;99.90;;;;;;4988338;28;20299;-94
2022/10/26 09:08:02;;;;;;;;;;;12.50;99.90;;;;;;4976627;28;19926;-96
2022/10/26 09:10:29;;;;;;;;;;;12.60;99.90;;;;;;4986674;28;19930;-94
2022/10/26 09:13:03;;;;;;;;;;;12.70;99.90;;;;;;4982996;28;19936;-94
2022/10/26 09:15:47;;;;;;;;;;;12.80;99.90;;;;;;4979435;28;19976;-94
2022/10/26 09:18:21;;;;;;;;;;;12.90;99.90;;;;;;4982768;28;19926;-96
2022/10/26 09:20:47;;;;;;;;;;;12.90;99.90;;;;;;5001714;28;19925;-94
2022/10/26 09:23:16;;;;;;;;;;;13.00;99.90;;;;;;4987380;28;19940;-96
2022/10/26 09:25:42;;;;;;;;;;;13.00;99.90;;;;;;4986901;28;19930;-96
2022/10/26 09:28:17;;;;;;;;;;;13.10;99.90;;;;;;4977095;28;19937;-94
2022/10/26 09:30:44;;;;;;;;;;;13.20;99.90;;;;;;4978428;28;19940;-96
2022/10/26 09:33:15;;;;;;;;;;;13.20;99.90;;;;;;5001238;28;19927;-95
2022/10/26 09:35:40;;;;;;;;;;;13.30;99.90;;;;;;4988292;28;20236;-94
2022/10/26 09:38:09;;;;;;;;;;;13.40;99.90;;;;;;4988510;28;20324;-96
2022/10/26 09:40:38;;;;;;;;;;;13.40;99.90;;;;;;4999686;28;19926;-96
2022/10/26 09:43:24;;;;;;;;;;;13.60;99.90;;;;;;4999670;28;19932;-96
2022/10/26 09:46:02;;;;;;;;;;;13.60;99.90;;;;;;5178116;23;19968;-90
2022/10/26 09:48:36;;;;;;;;;;;13.80;99.90;;;;;;4956145;28;19927;-89
2022/10/26 09:51:10;;;;;;;;;;;14.20;99.90;;;;;;4959473;28;19926;-90
2022/10/26 09:53:38;;;;;;;;;;;13.90;99.90;;;;;;4967946;28;19926;-91
2022/10/26 09:56:10;;;;;;;;;;;14.30;99.90;;;;;;4982765;28;20368;-89
2022/10/26 09:58:42;;;;;;;;;;;14.40;99.90;;;;;;4975633;28;19933;-88
2022/10/26 10:01:28;;;;;;;;;;;14.50;99.90;;;;;;4963519;28;20134;-90
2022/10/26 10:04:15;;;;;;;;;;;14.80;99.90;;;;;;4956216;28;19945;-89
2022/10/26 10:06:44;;;;;;;;;;;14.00;99.90;;;;;;4989432;28;19933;-88
2022/10/26 10:09:11;;;;;;;;;;;14.60;99.90;;;;;;4953981;28;19977;-90
2022/10/26 10:12:00;;;;;;;;;;;14.70;99.90;;;;;;4974035;28;19925;-89
2022/10/26 10:14:29;;;;;;;;;;;14.90;99.90;;;;;;4967090;28;19945;-88
2022/10/26 10:17:22;;;;;;;;;;;14.90;99.90;;;;;;4966052;28;19973;-90
2022/10/26 10:19:51;;;;;;;;;;;15.30;99.90;;;;;;4985652;28;20381;-90
2022/10/26 10:22:23;;;;;;;;;;;14.80;99.90;;;;;;4960509;28;19930;-88
2022/10/26 10:24:55;;;;;;;;;;;15.20;99.90;;;;;;4971576;28;19927;-89
2022/10/26 10:27:36;;;;;;;;;;;14.90;99.90;;;;;;4955728;28;20293;-90
2022/10/26 10:30:20;;;;;;;;;;;14.80;99.90;;;;;;4969229;28;19933;-90
2022/10/26 10:33:04;;;;;;;;;;;15.50;99.90;;;;;;4986724;28;20343;-90
2022/10/26 10:35:40;;;;;;;;;;;14.90;99.90;;;;;;4970264;28;19926;-89
2022/10/26 10:38:12;;;;;;;;;;;15.10;99.90;;;;;;4954155;28;19930;-90
2022/10/26 10:41:12;;;;;;;;;;;;;;;;;;;;;
2022/10/26 10:44:39;;;;;;;;;;;15.00;99.90;;;;;;4963843;28;20430;-95
2022/10/26 10:47:44;;;;;;;;;;;15.20;99.90;;;;;;4977013;28;19969;-93
2022/10/26 10:54:14;;;;;;;;;;;;;;;;;;;;;
2022/10/26 10:57:16;;;;;;;;;;;16.00;99.90;;;;;;4833365;29;19928;-92
2022/10/26 11:00:04;;;;;;;;;;;15.80;99.90;;;;;;4882700;29;20457;-91
2022/10/26 11:09:57;;;;;;;;;;;;;;;;;;;;;
2022/10/26 11:13:09;;;;;;;;;;;;;;;;;;;;;
2022/10/26 11:15:44;;;;;;;;;;;14.80;99.90;;;;;;4883254;29;20394;-91
2022/10/26 11:18:24;;;;;;;;;;;16.10;99.90;;;;;;4868473;29;20329;-91
2022/10/26 11:20:56;;;;;;;;;;;16.10;99.90;;;;;;4894279;29;20308;-90
2022/10/26 11:23:44;;;;;;;;;;;16.20;99.90;;;;;;4906357;29;19982;-93
2022/10/26 11:26:52;;;;;;;;;;;;;;;;;;;;;
2022/10/26 11:32:43;;;;;;;;;;;16.30;99.90;;;;;;4973181;28;19934;-94
2022/10/26 11:35:55;;;;;;;;;;;17.30;99.90;;;;;;4971394;28;19977;-92
2022/10/26 11:38:45;;;;;;;;;;;16.40;99.90;;;;;;4961455;28;19938;-92
2022/10/26 11:41:49;;;;;;;;;;;15.90;99.90;;;;;;4950793;28;19926;-92
2022/10/26 11:44:45;;;;;;;;;;;16.70;99.90;;;;;;4908428;28;20002;-92
2022/10/26 11:50:52;;;;;;;;;;;17.00;99.90;;;;;;4878719;29;20298;-91
2022/10/26 11:53:23;;;;;;;;;;;16.60;99.90;;;;;;4954403;28;20016;-89
2022/10/26 11:55:58;;;;;;;;;;;17.30;99.90;;;;;;4957776;28;19934;-88
2022/10/26 11:58:27;;;;;;;;;;;17.40;99.90;;;;;;4957713;28;19936;-87
2022/10/26 12:01:07;;;;;;;;;;;17.60;99.90;;;;;;4957482;28;20451;-87
2022/10/26 12:03:58;;;;;;;;;;;17.60;99.90;;;;;;4957562;28;19988;-89
2022/10/26 12:06:31;;;;;;;;;;;17.60;99.90;;;;;;4982183;28;20347;-87
2022/10/26 12:09:11;;;;;;;;;;;17.90;99.90;;;;;;4962101;28;19929;-89
2022/10/26 12:12:09;;;;;;;;;;;17.80;99.90;;;;;;4978579;28;19976;-88
2022/10/26 12:14:40;;;;;;;;;;;17.70;99.90;;;;;;4942555;28;19976;-88
2022/10/26 12:17:28;;;;;;;;;;;17.60;99.90;;;;;;4967145;28;19981;-89
2022/10/26 12:20:14;;;;;;;;;;;17.60;99.90;;;;;;4976378;28;19930;-88
2022/10/26 12:22:40;;;;;;;;;;;17.50;99.90;;;;;;4965231;28;19938;-88
2022/10/26 12:25:14;;;;;;;;;;;17.40;99.90;;;;;;4970615;28;19993;-88
2022/10/26 12:27:43;;;;;;;;;;;17.50;99.90;;;;;;4984146;28;19926;-88
2022/10/26 12:30:18;;;;;;;;;;;17.50;99.90;;;;;;4969985;28;19963;-89
2022/10/26 12:32:43;;;;;;;;;;;17.70;99.90;;;;;;4972278;28;20336;-89
2022/10/26 12:35:28;;;;;;;;;;;17.80;99.90;;;;;;4954087;28;20217;-88
2022/10/26 12:37:56;;;;;;;;;;;17.90;99.90;;;;;;4966162;28;19976;-88
2022/10/26 12:40:39;;;;;;;;;;;18.00;99.90;;;;;;4970664;28;20385;-89
2022/10/26 12:43:14;;;;;;;;;;;18.10;99.90;;;;;;4970942;28;19927;-88
2022/10/26 12:46:00;;;;;;;;;;;18.00;99.90;;;;;;4974253;28;19926;-88
2022/10/26 12:48:42;;;;;;;;;;;17.90;99.90;;;;;;4951357;28;20415;-87
2022/10/26 12:51:20;;;;;;;;;;;17.80;99.90;;;;;;4956224;28;19931;-88
2022/10/26 12:53:58;;;;;;;;;;;17.70;99.90;;;;;;4971958;28;19974;-88
2022/10/26 12:56:27;;;;;;;;;;;17.60;99.90;;;;;;4975502;28;20012;-89
2022/10/26 12:58:59;;;;;;;;;;;17.60;99.90;;;;;;4953409;28;19930;-88
2022/10/26 13:01:45;;;;;;;;;;;17.60;99.90;;;;;;4972885;28;19925;-88
2022/10/26 13:04:31;;;;;;;;;;;16.60;99.90;;;;;;4974311;28;19926;-88
2022/10/26 13:07:09;;;;;;;;;;;17.60;99.90;;;;;;4955114;28;19953;-89
2022/10/26 13:09:35;;;;;;;;;;;17.70;99.90;;;;;;4987756;28;20389;-88
2022/10/26 13:12:04;;;;;;;;;;;17.70;99.90;;;;;;4962481;28;19980;-88
2022/10/26 13:14:35;;;;;;;;;;;17.30;99.90;;;;;;4961034;28;19972;-89
2022/10/26 13:17:04;;;;;;;;;;;17.70;99.90;;;;;;4977062;28;19927;-88
2022/10/26 13:19:30;;;;;;;;;;;17.70;99.90;;;;;;4976768;28;19926;-88
2022/10/26 13:21:59;;;;;;;;;;;17.70;99.90;;;;;;4964269;28;20409;-89
2022/10/26 13:24:28;;;;;;;;;;;17.60;99.90;;;;;;4972993;28;20025;-89
2022/10/26 13:27:03;;;;;;;;;;;18.50;99.90;;;;;;4957607;28;19930;-89
2022/10/26 13:29:32;;;;;;;;;;;17.60;99.90;;;;;;4973541;28;20399;-88
2022/10/26 13:31:58;;;;;;;;;;;17.50;99.90;;;;;;4957172;28;19933;-88
2022/10/26 13:34:27;;;;;;;;;;;17.50;99.90;;;;;;4956346;28;20306;-88
2022/10/26 13:37:20;;;;;;;;;;;17.50;99.90;;;;;;4970003;28;19977;-88
2022/10/26 13:39:49;;;;;;;;;;;17.60;99.90;;;;;;4971999;28;19927;-88
2022/10/26 13:42:25;;;;;;;;;;;17.60;99.90;;;;;;4973293;28;20024;-88
2022/10/26 13:44:52;;;;;;;;;;;17.50;99.90;;;;;;4956284;28;20308;-88
2022/10/26 13:47:24;;;;;;;;;;;17.50;99.90;;;;;;4970501;28;19934;-88
2022/10/26 13:49:51;;;;;;;;;;;17.80;99.90;;;;;;4965720;28;19930;-87
2022/10/26 13:52:37;;;;;;;;;;;17.50;99.90;;;;;;4971687;28;20060;-88
2022/10/26 13:55:24;;;;;;;;;;;17.50;99.90;;;;;;4956821;28;19964;-87
2022/10/26 13:58:10;;;;;;;;;;;17.40;99.90;;;;;;4956815;28;19922;-87
2022/10/26 14:00:39;;;;;;;;;;;17.70;99.90;;;;;;4954662;28;19927;-87
2022/10/26 14:03:15;;;;;;;;;;;16.70;99.90;;;;;;4971553;28;19930;-88
2022/10/26 14:05:44;;;;;;;;;;;17.30;99.90;;;;;;4972353;28;20400;-89
2022/10/26 14:08:20;;;;;;;;;;;17.30;99.90;;;;;;4955169;28;19933;-88
2022/10/26 14:14:25;;;;;;;;;;;17.30;99.90;;;;;;4927496;28;19926;-90
2022/10/26 14:16:56;;;;;;;;;;;17.00;99.90;;;;;;4969686;28;19941;-88
2022/10/26 14:19:32;;;;;;;;;;;17.30;99.90;;;;;;4954092;28;19926;-89
2022/10/26 14:26:01;;;;;;;;;;;17.30;99.90;;;;;;4967152;28;19921;-94
2022/10/26 14:31:56;;;;;;;;;;;17.20;99.90;;;;;;4950087;28;19926;-92
2022/10/26 14:34:39;;;;;;;;;;;17.20;99.90;;;;;;4946313;28;19934;-91
2022/10/26 14:37:31;;;;;;;;;;;;;;;;;;;;;
2022/10/26 14:43:48;;;;;;;;;;;;;;;;;;;;;
2022/10/26 14:50:02;;;;;;;;;;;17.00;99.90;;;;;;4896171;29;19928;-90
2022/10/26 14:53:12;;;;;;;;;;;17.60;99.90;;;;;;4885055;29;19939;-90
2022/10/26 14:55:48;;;;;;;;;;;16.60;99.90;;;;;;4899608;28;19927;-88
2022/10/26 15:09:26;;;;;;;;;;;15.40;99.90;;;;;;4831884;29;19928;-88
2022/10/26 15:11:54;;;;;;;;;;;16.30;99.90;;;;;;4860522;29;20275;-87
2022/10/26 15:14:20;;;;;;;;;;;16.20;99.90;;;;;;4931996;28;19925;-87
2022/10/26 15:16:51;;;;;;;;;;;16.10;99.90;;;;;;4946338;28;19973;-87
2022/10/26 15:19:22;;;;;;;;;;;16.10;99.90;;;;;;4963779;28;19988;-88
2022/10/26 15:21:49;;;;;;;;;;;16.10;99.90;;;;;;4964301;28;20010;-86
2022/10/26 15:24:32;;;;;;;;;;;16.00;99.90;;;;;;4964031;28;19941;-88
2022/10/26 15:27:01;;;;;;;;;;;16.00;99.90;;;;;;4973839;28;19932;-87
2022/10/26 15:29:38;;;;;;;;;;;16.00;99.90;;;;;;4981549;28;19926;-87
2022/10/26 15:32:05;;;;;;;;;;;16.00;99.90;;;;;;4962075;28;19926;-86
2022/10/26 15:34:30;;;;;;;;;;;16.00;99.90;;;;;;4963494;28;19926;-88
2022/10/26 15:36:58;;;;;;;;;;;16.00;99.90;;;;;;4960233;28;20409;-90
2022/10/26 15:39:30;;;;;;;;;;;16.00;99.90;;;;;;4953746;28;20020;-91